Aspen-Gerbaz, Colorado
Current Conditions -  °F | °C
As of 2:53 PM on Friday 28 Nov 2014 (Local Time) from KASE Reporting Station
Clear Clear  
Wind Chill: 51°   Ceiling: Unl
Heat Index: 51°   Visibility: 10mi
Dew Point: 19°   Wind: 6mph
Humidity: 28%   Direction: 290°WNW
Pressure: 30.07"   Gusts: NA
Location:  39.1256°N, 106.797°W
Report Text: KASE 282153Z 29005KT 10SM CLR 11/M07 A3007 RMK AO2 SLP125 T01061072
Loading
Personal Weather Stations






























Interactive Weather Map New forecast layout! Learn more

10-Day Weather Forecast

Advertisements
Track Severe Weather on mobile